createdAt,value
2019-02-25T00:01:34.632Z,3.37
2019-02-25T00:04:00.645Z,3.97
2019-02-25T00:06:26.661Z,3.70
2019-02-25T00:08:52.719Z,3.33
2019-02-25T00:11:18.741Z,4.07
2019-02-25T00:13:44.780Z,4.70
2019-02-25T00:16:10.796Z,3.57
2019-02-25T00:18:36.833Z,3.57
2019-02-25T00:21:02.837Z,4.33
2019-02-25T00:23:28.871Z,3.97
2019-02-25T00:25:54.899Z,4.30
2019-02-25T00:28:20.918Z,4.30
2019-02-25T00:30:46.924Z,3.40
2019-02-25T00:33:12.959Z,4.13
2019-02-25T00:35:38.976Z,3.63
2019-02-25T00:38:05.007Z,3.47
2019-02-25T00:40:31.032Z,3.50
2019-02-25T00:42:57.060Z,3.73
2019-02-25T00:45:23.074Z,3.40
2019-02-25T00:47:49.106Z,3.30
2019-02-25T00:50:36.909Z,3.20
2019-02-25T00:53:02.964Z,3.13
2019-02-25T00:55:28.976Z,3.63
2019-02-25T00:57:55.027Z,3.37
2019-02-25T01:00:21.766Z,3.30
2019-02-25T01:02:47.795Z,3.83
2019-02-25T01:05:14.911Z,3.53
2019-02-25T01:07:41.040Z,3.90
2019-02-25T01:10:11.991Z,4.10
2019-02-25T01:12:38.043Z,3.73
2019-02-25T01:15:06.643Z,3.77
2019-02-25T01:17:32.685Z,3.60
2019-02-25T01:19:58.698Z,3.83
2019-02-25T01:22:24.705Z,2.93
2019-02-25T01:24:51.861Z,3.10
2019-02-25T01:27:17.880Z,3.47
2019-02-25T01:29:43.907Z,4.07
2019-02-25T01:32:09.939Z,4.30
2019-02-25T01:34:35.979Z,3.53
2019-02-25T01:37:01.991Z,3.80
2019-02-25T01:39:28.015Z,3.77
2019-02-25T01:41:54.031Z,3.80
2019-02-25T01:44:20.064Z,4.10
2019-02-25T01:46:46.216Z,4.03
2019-02-25T01:49:32.124Z,3.50
2019-02-25T01:51:58.141Z,3.50
2019-02-25T01:54:24.188Z,3.93
2019-02-25T01:56:50.201Z,3.97
2019-02-25T01:59:16.232Z,3.80
2019-02-25T02:01:42.247Z,3.63
2019-02-25T02:04:08.288Z,3.60
2019-02-25T02:06:34.318Z,3.50
2019-02-25T02:09:00.375Z,3.47
2019-02-25T02:11:26.395Z,3.60
2019-02-25T02:13:52.431Z,4.90
2019-02-25T02:16:18.452Z,4.37
2019-02-25T02:18:44.488Z,4.13
2019-02-25T02:21:10.503Z,4.00
2019-02-25T02:23:36.539Z,4.00
2019-02-25T02:26:02.629Z,4.00
2019-02-25T02:28:28.660Z,4.67
2019-02-25T02:30:54.672Z,3.83
2019-02-25T02:33:20.708Z,4.30
2019-02-25T02:35:46.722Z,3.53
2019-02-25T02:38:12.737Z,3.97
2019-02-25T02:40:38.766Z,3.93
2019-02-25T02:43:04.778Z,4.30
2019-02-25T02:45:34.607Z,4.10
2019-02-25T02:48:03.925Z,3.87
2019-02-25T02:50:29.974Z,4.17
2019-02-25T02:52:55.985Z,4.40
2019-02-25T02:55:22.035Z,3.97
2019-02-25T02:57:48.070Z,3.80
2019-02-25T03:00:16.168Z,3.97
2019-02-25T03:02:42.315Z,3.80
2019-02-25T03:05:10.660Z,3.73
2019-02-25T03:07:36.771Z,3.80
2019-02-25T03:10:06.207Z,4.00
2019-02-25T03:12:32.219Z,3.77
2019-02-25T03:14:58.254Z,4.20
2019-02-25T03:17:24.274Z,3.30
2019-02-25T03:19:50.307Z,4.10
2019-02-25T03:22:16.383Z,3.37
2019-02-25T03:24:42.438Z,3.53
2019-02-25T03:27:08.462Z,4.20
2019-02-25T03:29:34.494Z,3.43
2019-02-25T03:32:00.523Z,3.27
2019-02-25T03:34:26.544Z,3.47
2019-02-25T03:36:52.551Z,3.87
2019-02-25T03:39:18.939Z,3.50
2019-02-25T03:41:44.957Z,3.33
2019-02-25T03:44:10.984Z,3.73
2019-02-25T03:46:37.003Z,3.43
2019-02-25T03:49:03.032Z,3.80
2019-02-25T03:51:29.079Z,3.60
2019-02-25T03:53:55.100Z,3.17
2019-02-25T03:56:21.135Z,3.43
2019-02-25T03:58:47.312Z,3.57
2019-02-25T04:01:13.350Z,3.80
2019-02-25T04:03:39.463Z,3.40
2019-02-25T04:06:05.499Z,3.27
2019-02-25T04:08:31.556Z,3.33
2019-02-25T04:10:57.600Z,3.43
2019-02-25T04:13:23.653Z,3.30
2019-02-25T04:15:49.688Z,3.47
2019-02-25T04:18:15.703Z,3.37
2019-02-25T04:20:41.741Z,3.13
2019-02-25T04:23:07.755Z,3.60
2019-02-25T04:25:33.865Z,3.13
2019-02-25T04:27:59.919Z,3.57
2019-02-25T04:30:25.951Z,4.20
2019-02-25T04:32:51.979Z,3.10
2019-02-25T04:35:18.017Z,3.40
2019-02-25T04:37:44.028Z,3.20
2019-02-25T04:40:11.869Z,3.43
2019-02-25T04:42:37.901Z,3.63
2019-02-25T04:45:07.639Z,3.67
2019-02-25T04:47:33.656Z,4.07
2019-02-25T04:49:59.690Z,3.63
2019-02-25T04:52:25.711Z,3.13
2019-02-25T04:54:51.828Z,3.70
2019-02-25T04:57:17.840Z,3.67
2019-02-25T04:59:43.857Z,3.20
2019-02-25T05:02:09.885Z,3.57
2019-02-25T05:04:35.907Z,3.40
2019-02-25T05:07:01.945Z,3.70
2019-02-25T05:09:27.951Z,3.47
2019-02-25T05:11:54.024Z,2.97
2019-02-25T05:14:20.044Z,3.73
2019-02-25T05:16:46.086Z,3.23
2019-02-25T05:19:12.105Z,3.30
2019-02-25T05:21:38.153Z,3.57
2019-02-25T05:24:04.168Z,3.13
2019-02-25T05:26:30.248Z,3.53
2019-02-25T05:28:56.276Z,3.77
2019-02-25T05:31:22.323Z,3.77
2019-02-25T05:33:48.340Z,3.13
2019-02-25T05:36:14.360Z,3.20
2019-02-25T05:38:40.380Z,3.37
2019-02-25T05:41:06.420Z,4.10
2019-02-25T05:43:32.479Z,4.40
2019-02-25T05:45:58.514Z,3.17
2019-02-25T05:48:24.533Z,4.00
2019-02-25T05:50:50.567Z,3.80
2019-02-25T05:53:16.675Z,4.10
2019-02-25T05:55:42.732Z,3.57
2019-02-25T05:58:08.752Z,3.30
2019-02-25T06:00:35.500Z,3.27
2019-02-25T06:03:01.516Z,3.80
2019-02-25T06:05:27.634Z,3.60
2019-02-25T06:07:53.727Z,3.10
2019-02-25T06:10:19.762Z,4.03
2019-02-25T06:12:45.796Z,3.17
2019-02-25T06:15:18.575Z,3.75
2019-02-25T06:17:44.608Z,4.10
2019-02-25T06:20:12.731Z,3.67
2019-02-25T06:22:38.784Z,3.70
2019-02-25T06:25:07.343Z,3.23
2019-02-25T06:27:33.485Z,7.93
2019-02-25T06:29:59.495Z,3.57
2019-02-25T06:32:25.565Z,3.70
2019-02-25T06:34:51.595Z,3.50
2019-02-25T06:37:17.624Z,3.10
2019-02-25T06:39:43.636Z,3.73
2019-02-25T06:42:09.659Z,3.67
2019-02-25T06:44:35.687Z,3.93
2019-02-25T06:47:02.004Z,3.60
2019-02-25T06:49:28.020Z,3.70
2019-02-25T06:51:54.051Z,3.73
2019-02-25T06:54:20.119Z,3.57
2019-02-25T06:56:46.167Z,3.43
2019-02-25T06:59:12.175Z,4.33
2019-02-25T07:01:38.212Z,3.50
2019-02-25T07:04:08.715Z,4.10
2019-02-25T07:06:36.655Z,4.17
2019-02-25T07:09:05.275Z,3.90
2019-02-25T07:11:39.499Z,3.67
2019-02-25T07:14:09.931Z,4.07
2019-02-25T07:16:37.843Z,3.67
2019-02-25T07:19:08.558Z,4.03
2019-02-25T07:21:36.507Z,3.30
2019-02-25T07:24:04.688Z,4.00
2019-02-25T07:26:41.523Z,3.53
2019-02-25T07:29:18.267Z,3.97
2019-02-25T07:31:52.031Z,3.40
2019-02-25T07:34:31.524Z,4.30
2019-02-25T07:37:17.331Z,3.63
2019-02-25T07:39:54.107Z,3.67
2019-02-25T07:42:22.043Z,4.07
2019-02-25T07:44:49.964Z,3.73
2019-02-25T07:47:29.971Z,4.20
2019-02-25T07:50:09.748Z,3.70
2019-02-25T07:52:49.821Z,3.73
2019-02-25T07:55:34.123Z,4.37
2019-02-25T07:58:02.073Z,4.17
2019-02-25T08:00:35.911Z,3.70
2019-02-25T08:03:03.858Z,3.70
2019-02-25T08:05:43.808Z,3.63
2019-02-25T08:08:28.314Z,3.60
2019-02-25T08:11:14.339Z,4.27
2019-02-25T08:13:42.299Z,4.17
2019-02-25T08:16:16.455Z,4.20
2019-02-25T08:18:47.467Z,3.90
2019-02-25T08:21:24.262Z,4.23
2019-02-25T08:23:57.764Z,4.07
2019-02-25T08:26:25.680Z,3.50
2019-02-25T08:28:56.140Z,3.83
2019-02-25T08:31:36.367Z,3.67
2019-02-25T08:34:20.776Z,4.17
2019-02-25T08:37:02.123Z,3.63
2019-02-25T08:39:27.779Z,3.43
2019-02-25T08:42:04.884Z,3.93
2019-02-25T08:44:38.854Z,3.90
2019-02-25T08:47:09.559Z,3.60
2019-02-25T08:49:37.475Z,3.63
2019-02-25T08:52:03.510Z,3.33
2019-02-25T08:54:29.655Z,2.97
2019-02-25T08:56:55.663Z,3.37
2019-02-25T08:59:21.700Z,4.00
2019-02-25T09:01:47.711Z,4.10
2019-02-25T09:04:13.745Z,3.43
2019-02-25T09:06:39.771Z,3.10
2019-02-25T09:09:06.004Z,3.67
2019-02-25T09:11:32.025Z,3.10
2019-02-25T09:13:58.058Z,2.90
2019-02-25T09:16:24.443Z,3.37
2019-02-25T09:18:50.475Z,2.93
2019-02-25T09:21:16.486Z,2.20
2019-02-25T09:23:42.520Z,3.00
2019-02-25T09:26:08.539Z,2.57
2019-02-25T09:28:34.581Z,2.70
2019-02-25T09:31:00.600Z,2.63
2019-02-25T09:33:26.661Z,2.60
2019-02-25T09:35:52.667Z,3.00
2019-02-25T09:38:18.697Z,2.63
2019-02-25T09:40:44.708Z,2.53
2019-02-25T09:43:10.746Z,2.67
2019-02-25T09:45:36.774Z,2.13
2019-02-25T09:48:02.908Z,2.60
2019-02-25T09:50:28.928Z,2.90
2019-02-25T09:52:54.955Z,2.63
2019-02-25T09:55:20.987Z,2.67
2019-02-25T09:57:47.022Z,2.70
2019-02-25T10:00:18.747Z,2.40
2019-02-25T10:02:44.780Z,2.37
2019-02-25T10:05:10.824Z,2.80
2019-02-25T10:07:36.899Z,3.00
2019-02-25T10:10:08.920Z,3.20
2019-02-25T10:12:34.951Z,3.33
2019-02-25T10:15:00.968Z,3.90
2019-02-25T10:17:26.986Z,2.80
2019-02-25T10:19:53.011Z,3.40
2019-02-25T10:22:19.030Z,3.17
2019-02-25T10:24:45.065Z,3.87
2019-02-25T10:27:11.079Z,3.70
2019-02-25T10:29:37.112Z,2.80
2019-02-25T10:32:04.833Z,3.43
2019-02-25T10:34:31.078Z,3.20
2019-02-25T10:36:57.096Z,2.93
2019-02-25T10:39:23.128Z,2.87
2019-02-25T10:41:51.064Z,3.37
2019-02-25T10:44:17.112Z,3.00
2019-02-25T10:46:44.828Z,2.80
2019-02-25T10:49:11.810Z,2.37
2019-02-25T10:51:40.630Z,3.00
2019-02-25T10:54:05.939Z,3.30
2019-02-25T10:56:35.771Z,2.93
2019-02-25T10:59:03.882Z,2.33
2019-02-25T11:01:29.807Z,3.00
2019-02-25T11:03:55.835Z,2.70
2019-02-25T11:06:21.846Z,2.70
2019-02-25T11:08:49.785Z,3.03
2019-02-25T11:11:22.641Z,2.80
2019-02-25T11:13:58.763Z,3.10
2019-02-25T11:16:24.759Z,2.77
2019-02-25T11:18:52.779Z,3.53
2019-02-25T11:21:18.708Z,2.43
2019-02-25T11:23:45.186Z,3.17
2019-02-25T11:26:12.659Z,2.77
2019-02-25T11:28:41.089Z,2.60
2019-02-25T11:31:06.628Z,3.43
2019-02-25T11:33:34.399Z,2.90
2019-02-25T11:36:00.707Z,2.60
2019-02-25T11:38:28.780Z,2.87
2019-02-25T11:40:54.775Z,3.07
2019-02-25T11:43:21.545Z,3.00
2019-02-25T11:45:47.923Z,3.30
2019-02-25T11:48:13.960Z,3.23
2019-02-25T11:50:40.027Z,3.07
2019-02-25T11:53:06.044Z,3.03
2019-02-25T11:55:32.175Z,2.43
2019-02-25T11:57:58.191Z,2.93
2019-02-25T12:00:25.123Z,2.93
2019-02-25T12:02:51.140Z,2.83
2019-02-25T12:05:18.089Z,2.77
2019-02-25T12:07:44.203Z,2.83
2019-02-25T12:10:30.116Z,2.73
2019-02-25T12:12:56.138Z,3.00
2019-02-25T12:15:22.373Z,2.37
2019-02-25T12:17:48.389Z,2.63
2019-02-25T12:20:14.423Z,2.90
2019-02-25T12:22:40.439Z,6.70
2019-02-25T12:25:12.626Z,3.37
2019-02-25T12:27:38.679Z,2.60
2019-02-25T12:30:08.523Z,2.93
2019-02-25T12:32:34.542Z,6.03
2019-02-25T12:35:01.936Z,3.10
2019-02-25T12:37:27.950Z,2.80
2019-02-25T12:39:53.984Z,3.33
2019-02-25T12:42:20.008Z,3.87
2019-02-25T12:44:46.043Z,2.53
2019-02-25T12:47:12.056Z,2.00
2019-02-25T12:49:38.093Z,2.70
2019-02-25T12:52:04.099Z,2.80
2019-02-25T12:54:30.135Z,2.50
2019-02-25T12:56:56.151Z,2.53
2019-02-25T12:59:22.189Z,2.70
2019-02-25T13:01:48.202Z,2.57
2019-02-25T13:04:14.241Z,2.67
2019-02-25T13:06:40.255Z,2.00
2019-02-25T13:09:10.074Z,2.77
2019-02-25T13:11:36.112Z,2.63
2019-02-25T13:14:02.128Z,2.33
2019-02-25T13:16:28.190Z,2.87
2019-02-25T13:18:54.207Z,2.70
2019-02-25T13:21:20.239Z,2.07
2019-02-25T13:23:46.256Z,2.40
2019-02-25T13:26:12.302Z,2.07
2019-02-25T13:28:38.427Z,2.37
2019-02-25T13:31:05.696Z,1.93
2019-02-25T13:33:32.402Z,2.23
2019-02-25T13:35:58.523Z,2.17
2019-02-25T13:38:24.631Z,2.27
2019-02-25T13:40:50.663Z,2.27
2019-02-25T13:43:16.771Z,2.00
2019-02-25T13:45:42.807Z,2.20
2019-02-25T13:48:08.924Z,1.70
2019-02-25T13:50:35.063Z,2.10
2019-02-25T13:53:01.171Z,2.07
2019-02-25T13:55:27.299Z,1.87
2019-02-25T13:57:53.315Z,1.60
2019-02-25T14:00:21.053Z,2.13
2019-02-25T14:02:47.267Z,1.73
2019-02-25T14:05:13.591Z,1.77
2019-02-25T14:07:39.707Z,1.30
2019-02-25T14:10:09.047Z,1.67
2019-02-25T14:12:35.063Z,1.30
2019-02-25T14:15:01.195Z,1.80
2019-02-25T14:17:27.321Z,1.70
2019-02-25T14:19:53.648Z,2.13
2019-02-25T14:22:19.686Z,1.57
2019-02-25T14:24:45.895Z,2.30
2019-02-25T14:27:11.961Z,1.20
2019-02-25T14:29:37.991Z,1.40
2019-02-25T14:32:04.128Z,1.03
2019-02-25T14:34:30.140Z,1.20
2019-02-25T14:36:57.195Z,1.47
2019-02-25T14:39:27.746Z,1.60
2019-02-25T14:41:54.415Z,1.40
2019-02-25T14:44:19.939Z,1.13
2019-02-25T14:46:46.071Z,1.70
2019-02-25T14:49:12.084Z,1.52
2019-02-25T14:51:38.216Z,1.20
2019-02-25T14:54:04.344Z,1.00
2019-02-25T14:56:30.675Z,1.30
2019-02-25T14:58:56.709Z,1.63
2019-02-25T15:01:25.061Z,1.47
2019-02-25T15:03:50.852Z,1.10
2019-02-25T15:06:16.891Z,1.27
2019-02-25T15:08:42.907Z,0.80
2019-02-25T15:11:10.846Z,1.47
2019-02-25T15:13:37.604Z,0.90
2019-02-25T15:16:04.903Z,0.80
2019-02-25T15:18:31.347Z,1.73
2019-02-25T15:20:58.455Z,0.77
2019-02-25T15:23:27.469Z,0.80
2019-02-25T15:25:53.743Z,0.63
2019-02-25T15:28:20.359Z,0.80
2019-02-25T15:30:47.784Z,0.70
2019-02-25T15:33:13.867Z,0.80
2019-02-25T15:35:41.564Z,1.17
2019-02-25T15:38:08.032Z,0.60
2019-02-25T15:40:34.166Z,0.50
2019-02-25T15:43:03.291Z,0.63
2019-02-25T15:45:32.839Z,0.63
2019-02-25T15:47:59.762Z,0.60
2019-02-25T15:50:26.099Z,0.60
2019-02-25T15:52:52.145Z,0.60
2019-02-25T15:55:19.513Z,0.63
2019-02-25T15:57:46.111Z,0.43
2019-02-25T16:00:19.058Z,0.50
2019-02-25T16:02:50.195Z,0.60
2019-02-25T16:05:16.207Z,0.60
2019-02-25T16:07:42.358Z,0.60
2019-02-25T16:10:12.074Z,0.40
2019-02-25T16:12:38.528Z,0.50
2019-02-25T16:15:11.133Z,0.40
2019-02-25T16:17:38.904Z,0.50
2019-02-25T16:20:08.027Z,0.40
2019-02-25T16:22:35.972Z,0.47
2019-02-25T16:25:03.120Z,0.47
2019-02-25T16:27:30.241Z,0.50
2019-02-25T16:29:57.990Z,0.60
2019-02-25T16:32:26.135Z,0.70
2019-02-25T16:34:52.295Z,0.40
2019-02-25T16:37:19.791Z,0.50
2019-02-25T16:39:47.407Z,0.90
2019-02-25T16:42:13.455Z,0.40
2019-02-25T16:44:39.586Z,0.60
2019-02-25T16:47:07.844Z,0.77
2019-02-25T16:49:34.420Z,0.70
2019-02-25T16:52:02.252Z,1.17
2019-02-25T16:54:28.403Z,0.90
2019-02-25T16:56:54.551Z,1.10
2019-02-25T16:59:22.584Z,1.20
2019-02-25T17:01:48.922Z,0.97
2019-02-25T17:04:16.833Z,1.00
2019-02-25T17:06:42.994Z,1.40
2019-02-25T17:09:15.974Z,0.80
2019-02-25T17:11:43.503Z,1.00
2019-02-25T17:14:10.067Z,1.10
2019-02-25T17:16:36.133Z,0.90
2019-02-25T17:19:02.208Z,0.67
2019-02-25T17:21:28.740Z,0.90
2019-02-25T17:23:56.490Z,1.10
2019-02-25T17:26:22.902Z,1.20
2019-02-25T17:28:48.954Z,1.03
2019-02-25T17:31:16.364Z,1.10
2019-02-25T17:33:43.089Z,1.27
2019-02-25T17:36:10.246Z,1.80
2019-02-25T17:38:37.563Z,0.97
2019-02-25T17:41:05.959Z,1.33
2019-02-25T17:43:34.260Z,1.37
2019-02-25T17:46:04.519Z,1.30
2019-02-25T17:48:29.598Z,1.07
2019-02-25T17:50:57.246Z,1.37
2019-02-25T17:53:24.100Z,1.77
2019-02-25T17:55:53.166Z,1.40
2019-02-25T17:58:20.316Z,1.30
2019-02-25T18:00:47.555Z,1.20
2019-02-25T18:03:15.444Z,1.93
2019-02-25T18:05:43.243Z,1.97
2019-02-25T18:08:13.259Z,3.63
2019-02-25T18:10:39.029Z,5.97
2019-02-25T18:13:06.709Z,2.07
2019-02-25T18:15:33.115Z,3.13
2019-02-25T18:17:59.343Z,2.63
2019-02-25T18:20:25.559Z,3.43
2019-02-25T18:22:51.621Z,2.83
2019-02-25T18:25:18.435Z,2.17
2019-02-25T18:27:49.504Z,3.10
2019-02-25T18:30:20.907Z,2.07
2019-02-25T18:32:47.355Z,3.10
2019-02-25T18:35:14.433Z,2.00
2019-02-25T18:37:43.422Z,2.50
2019-02-25T18:40:11.660Z,4.17
2019-02-25T18:42:40.846Z,2.60
2019-02-25T18:45:11.088Z,2.63
2019-02-25T18:47:37.892Z,3.40
2019-02-25T18:50:10.831Z,3.10
2019-02-25T18:52:38.510Z,3.50
2019-02-25T18:55:09.056Z,2.87
2019-02-25T18:57:36.359Z,5.60
2019-02-25T19:00:08.880Z,4.07
2019-02-25T19:02:35.969Z,3.77
2019-02-25T19:05:06.455Z,4.10
2019-02-25T19:07:33.664Z,3.87
2019-02-25T19:10:00.040Z,2.97
2019-02-25T19:12:26.165Z,4.07
2019-02-25T19:14:55.153Z,4.27
2019-02-25T19:17:20.967Z,4.97
2019-02-25T19:19:49.928Z,4.30
2019-02-25T19:22:17.387Z,4.27
2019-02-25T19:24:44.574Z,4.73
2019-02-25T19:27:12.946Z,4.23
2019-02-25T19:29:39.120Z,4.33
2019-02-25T19:32:05.147Z,3.70
2019-02-25T19:34:31.385Z,3.83
2019-02-25T19:37:00.176Z,3.07
2019-02-25T19:39:25.426Z,5.23
2019-02-25T19:41:53.487Z,5.73
2019-02-25T19:44:21.130Z,4.97
2019-02-25T19:46:48.709Z,5.70
2019-02-25T19:49:16.086Z,4.33
2019-02-25T19:51:43.874Z,5.27
2019-02-25T19:54:11.587Z,4.20
2019-02-25T19:56:39.072Z,5.10
2019-02-25T19:59:06.103Z,4.00
2019-02-25T20:01:33.593Z,5.17
2019-02-25T20:04:04.305Z,6.57
2019-02-25T20:06:28.110Z,4.30
2019-02-25T20:08:56.529Z,4.03
2019-02-25T20:11:22.419Z,4.10
2019-02-25T20:13:48.463Z,4.37
2019-02-25T20:16:18.049Z,4.73
2019-02-25T20:18:42.937Z,4.07
2019-02-25T20:21:08.987Z,5.30
2019-02-25T20:23:35.058Z,5.00
2019-02-25T20:26:01.111Z,5.33
2019-02-25T20:28:27.135Z,4.83
2019-02-25T20:30:53.817Z,6.07
2019-02-25T20:33:20.158Z,5.07
2019-02-25T20:35:51.093Z,6.60
2019-02-25T20:38:14.199Z,7.00
2019-02-25T20:40:40.245Z,6.70
2019-02-25T20:43:06.352Z,6.77
2019-02-25T20:45:35.356Z,4.33
2019-02-25T20:48:01.966Z,4.80
2019-02-25T20:50:28.271Z,6.03
2019-02-25T20:52:55.858Z,8.03
2019-02-25T20:55:22.229Z,7.87
2019-02-25T20:57:48.254Z,5.87
2019-02-25T21:00:20.101Z,6.92
2019-02-25T21:02:46.304Z,5.37
2019-02-25T21:05:14.667Z,4.87
2019-02-25T21:07:40.308Z,5.60
2019-02-25T21:10:10.974Z,5.63
2019-02-25T21:12:37.130Z,5.67
2019-02-25T21:15:06.273Z,6.33
2019-02-25T21:17:33.118Z,6.63
2019-02-25T21:20:00.750Z,7.30
2019-02-25T21:22:29.494Z,7.63
2019-02-25T21:24:57.932Z,10.00
2019-02-25T21:27:28.349Z,7.67
2019-02-25T21:29:53.019Z,8.47
2019-02-25T21:32:21.949Z,7.93
2019-02-25T21:34:52.582Z,9.53
2019-02-25T21:37:15.900Z,10.10
2019-02-25T21:39:42.816Z,8.63
2019-02-25T21:42:12.654Z,7.27
2019-02-25T21:44:36.907Z,8.00
2019-02-25T21:47:03.747Z,8.10
2019-02-25T21:49:33.788Z,9.13
2019-02-25T21:52:00.295Z,6.83
2019-02-25T21:54:26.797Z,8.63
2019-02-25T21:56:52.836Z,7.50
2019-02-25T21:59:18.872Z,8.83
2019-02-25T22:01:44.917Z,8.40
2019-02-25T22:04:13.156Z,8.70
2019-02-25T22:06:38.911Z,8.77
2019-02-25T22:09:05.169Z,8.27
2019-02-25T22:11:31.284Z,8.07
2019-02-25T22:13:57.451Z,7.80
2019-02-25T22:16:24.019Z,8.30
2019-02-25T22:18:52.056Z,8.63
2019-02-25T22:21:21.127Z,7.20
2019-02-25T22:23:49.474Z,8.23
2019-02-25T22:26:15.284Z,7.40
2019-02-25T22:28:41.311Z,9.17
2019-02-25T22:31:08.896Z,8.40
2019-02-25T22:33:35.276Z,7.70
2019-02-25T22:36:02.483Z,7.77
2019-02-25T22:38:28.491Z,7.70
2019-02-25T22:40:55.953Z,7.63
2019-02-25T22:43:22.448Z,7.87
2019-02-25T22:45:48.634Z,7.80
2019-02-25T22:48:16.385Z,8.20
2019-02-25T22:50:42.588Z,9.40
2019-02-25T22:53:09.366Z,7.27
2019-02-25T22:55:39.303Z,8.27
2019-02-25T22:58:06.035Z,8.30
2019-02-25T23:00:42.146Z,7.70
2019-02-25T23:03:11.148Z,7.30
2019-02-25T23:05:38.988Z,7.00
2019-02-25T23:08:04.210Z,6.50
2019-02-25T23:10:30.233Z,5.60
2019-02-25T23:12:56.295Z,5.67
2019-02-25T23:15:24.588Z,6.13
2019-02-25T23:17:50.235Z,6.73
2019-02-25T23:20:16.256Z,6.17
2019-02-25T23:22:42.299Z,6.53
2019-02-25T23:25:09.531Z,6.33
2019-02-25T23:27:36.534Z,6.40
2019-02-25T23:30:08.544Z,6.17
2019-02-25T23:32:38.849Z,6.43
2019-02-25T23:35:04.377Z,6.00
2019-02-25T23:37:30.416Z,6.37
2019-02-25T23:40:00.057Z,7.00
2019-02-25T23:42:24.367Z,6.43
2019-02-25T23:44:50.379Z,6.57
2019-02-25T23:47:16.411Z,6.10
2019-02-25T23:49:43.875Z,6.17
2019-02-25T23:52:10.356Z,6.23
2019-02-25T23:54:36.381Z,5.87
2019-02-25T23:57:02.415Z,6.50
2019-02-25T23:59:28.426Z,5.90
